Test XHTML 1.0 Strict Page for WU-History Testing
Station Historical Data
 
Daily Summary for May 27, 2015 Units:  Both    English   Metric
« Previous Day
Next Day »
Daily Weekly Monthly Yearly Custom
  Current: High: Low: Average:
Temperature: 62.4 °F /  16.9 °C 62.8 °F /  17.1 °C 41.4 °F /  5.2 °C 48.9 °F /  9.4 °C
Dew Point: 47.4 °F /  8.6 °C 49.0 °F /  9.4 °C 40.8 °F /  4.9 °C 44.7 °F /  7.1 °C
Humidity: 58% 99% 58% 87%
Wind Speed: 9.2mph /  14.8km/h 9.2mph /  14.8km/h - 2mph /  3.2km/h
Wind Gust: 9.2mph /  14.8km/h 9.2mph /  14.8km/h - -
WindWest - - West
Pressure: 30.18 in /  1021.9 hPa 30.32 in /  1026.6 hPa 30.18 in /  1021.9 hPa -
Precipitation: 0.00 in /  0 mm      
Historical Graphs
 
 
Weather-Above Climate History
Untitled
Tabular Data for May 27, 2015
Time Temperature Dew Point Pressure Wind Wind Speed Wind Gust Humidity Rainfall Rate (Hourly)
00:04 44.4 °F /  6.9 °C 42.2 °F /  5.7 °C 30.31in /  1026.3hPa Calm     92% 0.00in /  0cm
00:09 44.1 °F /  6.7 °C 41.9 °F /  5.5 °C 30.31in /  1026.3hPa West 2.3mph /  3.7km/h 2.3mph /  3.7km/h 92% 0.00in /  0cm
00:14 44.1 °F /  6.7 °C 42.2 °F /  5.7 °C 30.32in /  1026.6hPa WNW 0.6mph /  1km/h   93% 0.00in /  0cm
00:19 44.1 °F /  6.7 °C 42.2 °F /  5.7 °C 30.32in /  1026.6hPa West 2.3mph /  3.7km/h 2.3mph /  3.7km/h 93% 0.00in /  0cm
00:24 44.1 °F /  6.7 °C 42.2 °F /  5.7 °C 30.31in /  1026.3hPa West 2.3mph /  3.7km/h 2.3mph /  3.7km/h 93% 0.00in /  0cm
00:29 44.1 °F /  6.7 °C 42.2 °F /  5.7 °C 30.32in /  1026.6hPa WNW 2.5mph /  4km/h 2.5mph /  4km/h 93% 0.00in /  0cm
00:35 44.2 °F /  6.8 °C 42.6 °F /  5.9 °C 30.32in /  1026.6hPa West 1.2mph /  1.9km/h 1.2mph /  1.9km/h 94% 0.00in /  0cm
00:40 44.2 °F /  6.8 °C 42.6 °F /  5.9 °C 30.32in /  1026.6hPa West 3.5mph /  5.6km/h 3.5mph /  5.6km/h 94% 0.00in /  0cm
00:45 44.1 °F /  6.7 °C 42.2 °F /  5.7 °C 30.32in /  1026.6hPa West 1.2mph /  1.9km/h 1.2mph /  1.9km/h 93% 0.00in /  0cm
00:50 44.1 °F /  6.7 °C 42.4 °F /  5.8 °C 30.32in /  1026.6hPa West 1.2mph /  1.9km/h   94% 0.00in /  0cm
00:55 43.7 °F /  6.5 °C 41.8 °F /  5.4 °C 30.32in /  1026.6hPa WNW 2.8mph /  4.5km/h 2.8mph /  4.5km/h 93% 0.00in /  0cm
01:00 43.7 °F /  6.5 °C 42.1 °F /  5.6 °C 30.32in /  1026.6hPa Calm     94% 0.00in /  0cm
01:05 43.3 °F /  6.3 °C 41.7 °F /  5.4 °C 30.32in /  1026.6hPa West 1.2mph /  1.9km/h   94% 0.00in /  0cm
01:10 43.0 °F /  6.1 °C 41.4 °F /  5.2 °C 30.31in /  1026.3hPa West 1.2mph /  1.9km/h 1.2mph /  1.9km/h 94% 0.00in /  0cm
01:15 43.0 °F /  6.1 °C 41.6 °F /  5.3 °C 30.32in /  1026.6hPa Calm     95% 0.00in /  0cm
01:20 42.8 °F /  6 °C 41.7 °F /  5.4 °C 30.31in /  1026.3hPa WNW 3.3mph /  5.3km/h 3.3mph /  5.3km/h 96% 0.00in /  0cm
01:25 42.8 °F /  6 °C 41.7 °F /  5.4 °C 30.32in /  1026.6hPa Calm     96% 0.00in /  0cm
01:30 42.8 °F /  6 °C 41.7 °F /  5.4 °C 30.32in /  1026.6hPa Calm     96% 0.00in /  0cm
01:35 42.6 °F /  5.9 °C 41.6 °F /  5.3 °C 30.32in /  1026.6hPa West 1.2mph /  1.9km/h 1.2mph /  1.9km/h 96% 0.00in /  0cm
01:40 42.6 °F /  5.9 °C 41.6 °F /  5.3 °C 30.32in /  1026.6hPa West 1.2mph /  1.9km/h   96% 0.00in /  0cm
01:45 42.6 °F /  5.9 °C 41.6 °F /  5.3 °C 30.32in /  1026.6hPa West 1.4mph /  2.3km/h 1.4mph /  2.3km/h 96% 0.00in /  0cm
01:50 42.8 °F /  6 °C 41.7 °F /  5.4 °C 30.31in /  1026.3hPa West 1.7mph /  2.7km/h 1.7mph /  2.7km/h 96% 0.00in /  0cm
01:55 42.4 °F /  5.8 °C 41.6 °F /  5.3 °C 30.31in /  1026.3hPa Calm     97% 0.00in /  0cm
02:00 42.4 °F /  5.8 °C 41.4 °F /  5.2 °C 30.31in /  1026.3hPa West 1.5mph /  2.4km/h 1.5mph /  2.4km/h 96% 0.00in /  0cm
02:05 42.4 °F /  5.8 °C 41.6 °F /  5.3 °C 30.31in /  1026.3hPa Calm     97% 0.00in /  0cm
02:10 42.3 °F /  5.7 °C 41.5 °F /  5.3 °C 30.31in /  1026.3hPa Calm     97% 0.00in /  0cm
02:15 42.3 °F /  5.7 °C 41.5 °F /  5.3 °C 30.31in /  1026.3hPa West 1.2mph /  1.9km/h   97% 0.00in /  0cm
02:21 42.3 °F /  5.7 °C 41.5 °F /  5.3 °C 30.31in /  1026.3hPa West 1.2mph /  1.9km/h 1.2mph /  1.9km/h 97% 0.00in /  0cm
02:26 42.3 °F /  5.7 °C 41.5 °F /  5.3 °C 30.31in /  1026.3hPa Calm     97% 0.00in /  0cm
02:31 42.1 °F /  5.6 °C 41.3 °F /  5.2 °C 30.31in /  1026.3hPa Calm     97% 0.00in /  0cm
02:36 41.9 °F /  5.5 °C 41.1 °F /  5.1 °C 30.31in /  1026.3hPa WNW 1.2mph /  1.9km/h 1.2mph /  1.9km/h 97% 0.00in /  0cm
02:41 41.9 °F /  5.5 °C 41.4 °F /  5.2 °C 30.30in /  1026hPa Calm     98% 0.00in /  0cm
02:46 41.7 °F /  5.4 °C 41.2 °F /  5.1 °C 30.31in /  1026.3hPa Calm     98% 0.00in /  0cm
02:51 41.7 °F /  5.4 °C 41.2 °F /  5.1 °C 30.31in /  1026.3hPa Calm     98% 0.00in /  0cm
02:56 41.5 °F /  5.3 °C 41.0 °F /  5 °C 30.30in /  1026hPa Calm     98% 0.00in /  0cm
03:01 41.4 °F /  5.2 °C 40.8 °F /  4.9 °C 30.31in /  1026.3hPa Calm     98% 0.00in /  0cm
03:06 41.4 °F /  5.2 °C 40.8 °F /  4.9 °C 30.30in /  1026hPa Calm     98% 0.00in /  0cm
03:11 41.5 °F /  5.3 °C 41.0 °F /  5 °C 30.30in /  1026hPa Calm     98% 0.00in /  0cm
03:16 41.7 °F /  5.4 °C 41.2 °F /  5.1 °C 30.30in /  1026hPa Calm     98% 0.00in /  0cm
03:21 41.9 °F /  5.5 °C 41.4 °F /  5.2 °C 30.30in /  1026hPa Calm     98% 0.00in /  0cm
03:26 41.9 °F /  5.5 °C 41.4 °F /  5.2 °C 30.30in /  1026hPa Calm     98% 0.00in /  0cm
03:31 42.1 °F /  5.6 °C 41.6 °F /  5.3 °C 30.30in /  1026hPa Calm     98% 0.00in /  0cm
03:36 42.1 °F /  5.6 °C 41.8 °F /  5.4 °C 30.30in /  1026hPa Calm     99% 0.00in /  0cm
03:41 41.7 °F /  5.4 °C 41.5 °F /  5.3 °C 30.30in /  1026hPa Calm     99% 0.00in /  0cm
03:46 41.9 °F /  5.5 °C 41.6 °F /  5.3 °C 30.30in /  1026hPa Calm     99% 0.00in /  0cm
03:51 42.1 °F /  5.6 °C 41.8 °F /  5.4 °C 30.30in /  1026hPa Calm     99% 0.00in /  0cm
03:56 42.3 °F /  5.7 °C 42.0 °F /  5.6 °C 30.30in /  1026hPa Calm     99% 0.00in /  0cm
04:01 42.4 °F /  5.8 °C 42.2 °F /  5.7 °C 30.30in /  1026hPa Calm     99% 0.00in /  0cm
04:06 42.1 °F /  5.6 °C 41.8 °F /  5.4 °C 30.30in /  1026hPa Calm     99% 0.00in /  0cm
04:11 41.7 °F /  5.4 °C 41.5 °F /  5.3 °C 30.30in /  1026hPa Calm     99% 0.00in /  0cm
04:16 41.7 °F /  5.4 °C 41.5 °F /  5.3 °C 30.30in /  1026hPa West 1.0mph /  1.6km/h 1.0mph /  1.6km/h 99% 0.00in /  0cm
04:21 41.9 °F /  5.5 °C 41.6 °F /  5.3 °C 30.30in /  1026hPa Calm     99% 0.00in /  0cm
04:26 42.1 °F /  5.6 °C 41.8 °F /  5.4 °C 30.30in /  1026hPa Calm     99% 0.00in /  0cm
04:31 42.3 °F /  5.7 °C 42.0 °F /  5.6 °C 30.30in /  1026hPa West 2.8mph /  4.5km/h 2.8mph /  4.5km/h 99% 0.00in /  0cm
04:36 43.2 °F /  6.2 °C 42.9 °F /  6.1 °C 30.30in /  1026hPa West 2.8mph /  4.5km/h 2.8mph /  4.5km/h 99% 0.00in /  0cm
04:41 43.5 °F /  6.4 °C 43.3 °F /  6.3 °C 30.30in /  1026hPa Calm     99% 0.00in /  0cm
04:46 44.1 °F /  6.7 °C 43.8 °F /  6.6 °C 30.30in /  1026hPa Calm     99% 0.00in /  0cm
04:51 44.1 °F /  6.7 °C 43.8 °F /  6.6 °C 30.30in /  1026hPa Calm     99% 0.00in /  0cm
04:56 44.4 °F /  6.9 °C 44.2 °F /  6.8 °C 30.30in /  1026hPa Calm     99% 0.00in /  0cm
05:01 44.4 °F /  6.9 °C 43.9 °F /  6.6 °C 30.29in /  1025.6hPa Calm     98% 0.00in /  0cm
05:06 44.4 °F /  6.9 °C 43.9 °F /  6.6 °C 30.29in /  1025.6hPa West 2.9mph /  4.7km/h 2.9mph /  4.7km/h 98% 0.00in /  0cm
05:11 44.2 °F /  6.8 °C 43.7 °F /  6.5 °C 30.30in /  1026hPa Calm     98% 0.00in /  0cm
05:16 44.4 °F /  6.9 °C 43.9 °F /  6.6 °C 30.30in /  1026hPa WNW 1.2mph /  1.9km/h 1.2mph /  1.9km/h 98% 0.00in /  0cm
05:21 44.6 °F /  7 °C 44.1 °F /  6.7 °C 30.30in /  1026hPa Calm     98% 0.00in /  0cm
05:26 45.0 °F /  7.2 °C 44.4 °F /  6.9 °C 30.29in /  1025.6hPa Calm     98% 0.00in /  0cm
05:31 45.0 °F /  7.2 °C 44.4 °F /  6.9 °C 30.30in /  1026hPa Calm     98% 0.00in /  0cm
05:36 45.3 °F /  7.4 °C 44.5 °F /  6.9 °C 30.30in /  1026hPa Calm     97% 0.00in /  0cm
05:41 45.5 °F /  7.5 °C 44.7 °F /  7.1 °C 30.30in /  1026hPa West 0.6mph /  1km/h   97% 0.00in /  0cm
05:46 45.7 °F /  7.6 °C 44.9 °F /  7.2 °C 30.29in /  1025.6hPa Calm     97% 0.00in /  0cm
05:51 45.7 °F /  7.6 °C 44.9 °F /  7.2 °C 30.28in /  1025.3hPa Calm     97% 0.00in /  0cm
05:56 45.9 °F /  7.7 °C 45.1 °F /  7.3 °C 30.29in /  1025.6hPa Calm     97% 0.00in /  0cm
06:01 46.2 °F /  7.9 °C 45.4 °F /  7.4 °C 30.29in /  1025.6hPa Calm     97% 0.00in /  0cm
06:06 46.4 °F /  8 °C 45.3 °F /  7.4 °C 30.28in /  1025.3hPa West 0.6mph /  1km/h   96% 0.00in /  0cm
06:11 46.8 °F /  8.2 °C 45.7 °F /  7.6 °C 30.29in /  1025.6hPa West 1.2mph /  1.9km/h   96% 0.00in /  0cm
06:16 47.1 °F /  8.4 °C 46.0 °F /  7.8 °C 30.29in /  1025.6hPa Calm     96% 0.00in /  0cm
06:21 47.1 °F /  8.4 °C 45.8 °F /  7.7 °C 30.28in /  1025.3hPa Calm     95% 0.00in /  0cm
06:26 47.5 °F /  8.6 °C 46.4 °F /  8 °C 30.28in /  1025.3hPa Calm     96% 0.00in /  0cm
06:31 47.7 °F /  8.7 °C 46.6 °F /  8.1 °C 30.29in /  1025.6hPa Calm     96% 0.00in /  0cm
06:36 47.7 °F /  8.7 °C 46.3 °F /  7.9 °C 30.29in /  1025.6hPa Calm     95% 0.00in /  0cm
06:41 48.0 °F /  8.9 °C 46.7 °F /  8.2 °C 30.28in /  1025.3hPa Calm     95% 0.00in /  0cm
06:46 48.2 °F /  9 °C 46.8 °F /  8.2 °C 30.28in /  1025.3hPa Calm     95% 0.00in /  0cm
06:51 48.6 °F /  9.2 °C 46.9 °F /  8.3 °C 30.28in /  1025.3hPa Calm     94% 0.00in /  0cm
06:56 48.9 °F /  9.4 °C 47.3 °F /  8.5 °C 30.28in /  1025.3hPa West 0.6mph /  1km/h   94% 0.00in /  0cm
07:01 49.1 °F /  9.5 °C 47.2 °F /  8.4 °C 30.28in /  1025.3hPa West 2.3mph /  3.7km/h 2.3mph /  3.7km/h 93% 0.00in /  0cm
07:06 49.5 °F /  9.7 °C 47.8 °F /  8.8 °C 30.28in /  1025.3hPa West 0.6mph /  1km/h   94% 0.00in /  0cm
07:11 49.6 °F /  9.8 °C 47.4 °F /  8.6 °C 30.28in /  1025.3hPa WNW 4.6mph /  7.4km/h 4.6mph /  7.4km/h 92% 0.00in /  0cm
07:16 50.0 °F /  10 °C 47.8 °F /  8.8 °C 30.28in /  1025.3hPa West 3.6mph /  5.8km/h 3.6mph /  5.8km/h 92% 0.00in /  0cm
07:21 49.8 °F /  9.9 °C 47.0 °F /  8.3 °C 30.28in /  1025.3hPa West 2.3mph /  3.7km/h 2.3mph /  3.7km/h 90% 0.00in /  0cm
07:26 50.0 °F /  10 °C 47.2 °F /  8.4 °C 30.28in /  1025.3hPa West 1.2mph /  1.9km/h 1.2mph /  1.9km/h 90% 0.00in /  0cm
07:31 50.4 °F /  10.2 °C 47.2 °F /  8.4 °C 30.28in /  1025.3hPa WNW 1.2mph /  1.9km/h 1.2mph /  1.9km/h 89% 0.00in /  0cm
07:36 50.7 °F /  10.4 °C 47.3 °F /  8.5 °C 30.28in /  1025.3hPa Calm     88% 0.00in /  0cm
07:41 51.1 °F /  10.6 °C 47.3 °F /  8.5 °C 30.28in /  1025.3hPa West 3.2mph /  5.1km/h 3.2mph /  5.1km/h 87% 0.00in /  0cm
07:46 50.9 °F /  10.5 °C 46.6 °F /  8.1 °C 30.28in /  1025.3hPa West 1.2mph /  1.9km/h   85% 0.00in /  0cm
07:51 50.9 °F /  10.5 °C 46.2 °F /  7.9 °C 30.28in /  1025.3hPa West 2.3mph /  3.7km/h 2.3mph /  3.7km/h 84% 0.00in /  0cm
07:56 51.1 °F /  10.6 °C 46.7 °F /  8.2 °C 30.28in /  1025.3hPa West 3.5mph /  5.6km/h 3.5mph /  5.6km/h 85% 0.00in /  0cm
08:01 51.1 °F /  10.6 °C 46.4 °F /  8 °C 30.28in /  1025.3hPa West 4.6mph /  7.4km/h 4.6mph /  7.4km/h 84% 0.00in /  0cm
08:06 51.6 °F /  10.9 °C 47.3 °F /  8.5 °C 30.28in /  1025.3hPa Calm     85% 0.00in /  0cm
08:16 52.0 °F /  11.1 °C 47.3 °F /  8.5 °C 30.28in /  1025.3hPa Calm     84% 0.00in /  0cm
08:21 52.5 °F /  11.4 °C 47.5 °F /  8.6 °C 30.28in /  1025.3hPa West 3.2mph /  5.1km/h 3.2mph /  5.1km/h 83% 0.00in /  0cm
08:26 52.7 °F /  11.5 °C 47.4 °F /  8.6 °C 30.28in /  1025.3hPa WNW 1.2mph /  1.9km/h 1.2mph /  1.9km/h 82% 0.00in /  0cm
08:31 52.7 °F /  11.5 °C 47.4 °F /  8.6 °C 30.27in /  1024.9hPa West 2.3mph /  3.7km/h 2.3mph /  3.7km/h 82% 0.00in /  0cm
08:36 52.7 °F /  11.5 °C 47.0 °F /  8.3 °C 30.27in /  1024.9hPa West 2.3mph /  3.7km/h 2.3mph /  3.7km/h 81% 0.00in /  0cm
08:41 52.9 °F /  11.6 °C 47.2 °F /  8.4 °C 30.27in /  1024.9hPa WNW 3.5mph /  5.6km/h 3.5mph /  5.6km/h 81% 0.00in /  0cm
08:46 53.2 °F /  11.8 °C 47.2 °F /  8.4 °C 30.27in /  1024.9hPa West 4.6mph /  7.4km/h 4.6mph /  7.4km/h 80% 0.00in /  0cm
08:51 53.2 °F /  11.8 °C 47.2 °F /  8.4 °C 30.28in /  1025.3hPa West 2.3mph /  3.7km/h 2.3mph /  3.7km/h 80% 0.00in /  0cm
08:56 53.1 °F /  11.7 °C 47.1 °F /  8.4 °C 30.28in /  1025.3hPa West 3.5mph /  5.6km/h 3.5mph /  5.6km/h 80% 0.00in /  0cm
09:01 53.1 °F /  11.7 °C 47.4 °F /  8.6 °C 30.27in /  1024.9hPa WNW 2.3mph /  3.7km/h 2.3mph /  3.7km/h 81% 0.00in /  0cm
09:06 53.2 °F /  11.8 °C 47.2 °F /  8.4 °C 30.27in /  1024.9hPa Calm     80% 0.00in /  0cm
09:11 53.1 °F /  11.7 °C 46.7 °F /  8.2 °C 30.27in /  1024.9hPa West 6.9mph /  11.1km/h 6.9mph /  11.1km/h 79% 0.00in /  0cm
09:16 53.2 °F /  11.8 °C 47.6 °F /  8.7 °C 30.26in /  1024.6hPa NNE 4.3mph /  6.9km/h 4.3mph /  6.9km/h 81% 0.00in /  0cm
09:21 54.3 °F /  12.4 °C 46.9 °F /  8.3 °C 30.27in /  1024.9hPa WNW 5.8mph /  9.3km/h 5.8mph /  9.3km/h 76% 0.00in /  0cm
09:26 54.0 °F /  12.2 °C 45.5 °F /  7.5 °C 30.26in /  1024.6hPa West 1.2mph /  1.9km/h   73% 0.00in /  0cm
09:31 53.6 °F /  12 °C 45.2 °F /  7.3 °C 30.26in /  1024.6hPa West 3.5mph /  5.6km/h 3.5mph /  5.6km/h 73% 0.00in /  0cm
09:41 54.5 °F /  12.5 °C 47.4 °F /  8.6 °C 30.26in /  1024.6hPa West 2.3mph /  3.7km/h 2.3mph /  3.7km/h 77% 0.00in /  0cm
09:46 56.1 °F /  13.4 °C 46.8 °F /  8.2 °C 30.25in /  1024.3hPa West 4.0mph /  6.4km/h 4.0mph /  6.4km/h 71% 0.00in /  0cm
09:51 56.1 °F /  13.4 °C 46.5 °F /  8.1 °C 30.25in /  1024.3hPa West 3.5mph /  5.6km/h 3.5mph /  5.6km/h 70% 0.00in /  0cm
09:56 55.9 °F /  13.3 °C 46.7 °F /  8.2 °C 30.25in /  1024.3hPa West 2.8mph /  4.5km/h 2.8mph /  4.5km/h 71% 0.00in /  0cm
10:01 56.7 °F /  13.7 °C 46.2 °F /  7.9 °C 30.25in /  1024.3hPa WNW 7.2mph /  11.6km/h 7.2mph /  11.6km/h 68% 0.00in /  0cm
10:06 57.6 °F /  14.2 °C 47.1 °F /  8.4 °C 30.25in /  1024.3hPa West 0.8mph /  1.3km/h 0.8mph /  1.3km/h 68% 0.00in /  0cm
10:11 57.9 °F /  14.4 °C 47.0 °F /  8.3 °C 30.25in /  1024.3hPa WNW 6.9mph /  11.1km/h 6.9mph /  11.1km/h 67% 0.00in /  0cm
10:16 56.5 °F /  13.6 °C 46.0 °F /  7.8 °C 30.25in /  1024.3hPa WNW 7.3mph /  11.7km/h 7.3mph /  11.7km/h 68% 0.00in /  0cm
10:21 55.8 °F /  13.2 °C 45.4 °F /  7.4 °C 30.25in /  1024.3hPa WNW 4.6mph /  7.4km/h 4.6mph /  7.4km/h 68% 0.00in /  0cm
10:31 57.9 °F /  14.4 °C 46.2 °F /  7.9 °C 30.23in /  1023.6hPa WNW 5.4mph /  8.7km/h 5.4mph /  8.7km/h 65% 0.00in /  0cm
10:36 58.5 °F /  14.7 °C 45.9 °F /  7.7 °C 30.23in /  1023.6hPa West 3.6mph /  5.8km/h 3.6mph /  5.8km/h 63% 0.00in /  0cm
10:41 58.1 °F /  14.5 °C 47.2 °F /  8.4 °C 30.23in /  1023.6hPa West 3.5mph /  5.6km/h 3.5mph /  5.6km/h 67% 0.00in /  0cm
10:46 57.9 °F /  14.4 °C 46.6 °F /  8.1 °C 30.22in /  1023.2hPa West 3.6mph /  5.8km/h 3.6mph /  5.8km/h 66% 0.00in /  0cm
10:51 57.7 °F /  14.3 °C 45.6 °F /  7.6 °C 30.22in /  1023.2hPa West 3.6mph /  5.8km/h 3.6mph /  5.8km/h 64% 0.00in /  0cm
10:56 57.4 °F /  14.1 °C 45.3 °F /  7.4 °C 30.22in /  1023.2hPa WNW 6.1mph /  9.8km/h 6.1mph /  9.8km/h 64% 0.00in /  0cm
11:01 58.5 °F /  14.7 °C 46.3 °F /  7.9 °C 30.22in /  1023.2hPa WNW 5.9mph /  9.5km/h 5.9mph /  9.5km/h 64% 0.00in /  0cm
11:06 59.7 °F /  15.4 °C 47.5 °F /  8.6 °C 30.22in /  1023.2hPa WNW 4.8mph /  7.7km/h 4.8mph /  7.7km/h 64% 0.00in /  0cm
11:11 59.7 °F /  15.4 °C 46.2 °F /  7.9 °C 30.21in /  1022.9hPa WNW 4.7mph /  7.6km/h 4.7mph /  7.6km/h 61% 0.00in /  0cm
11:16 59.4 °F /  15.2 °C 47.2 °F /  8.4 °C 30.21in /  1022.9hPa WNW 5.8mph /  9.3km/h 5.8mph /  9.3km/h 64% 0.00in /  0cm
11:21 59.0 °F /  15 °C 46.8 °F /  8.2 °C 30.21in /  1022.9hPa West 5.8mph /  9.3km/h 5.8mph /  9.3km/h 64% 0.00in /  0cm
11:26 59.0 °F /  15 °C 48.1 °F /  8.9 °C 30.21in /  1022.9hPa WNW 2.3mph /  3.7km/h 2.3mph /  3.7km/h 67% 0.00in /  0cm
11:31 59.0 °F /  15 °C 47.7 °F /  8.7 °C 30.21in /  1022.9hPa WNW 2.3mph /  3.7km/h 2.3mph /  3.7km/h 66% 0.00in /  0cm
11:36 59.4 °F /  15.2 °C 47.2 °F /  8.4 °C 30.21in /  1022.9hPa West 5.8mph /  9.3km/h 5.8mph /  9.3km/h 64% 0.00in /  0cm
11:41 60.3 °F /  15.7 °C 48.9 °F /  9.4 °C 30.20in /  1022.6hPa WNW 5.8mph /  9.3km/h 5.8mph /  9.3km/h 66% 0.00in /  0cm
11:46 60.3 °F /  15.7 °C 47.6 °F /  8.7 °C 30.20in /  1022.6hPa WNW 8.4mph /  13.5km/h 8.4mph /  13.5km/h 63% 0.00in /  0cm
11:51 60.6 °F /  15.9 °C 48.8 °F /  9.3 °C 30.20in /  1022.6hPa West 8.4mph /  13.5km/h 8.4mph /  13.5km/h 65% 0.00in /  0cm
11:56 60.8 °F /  16 °C 47.3 °F /  8.5 °C 30.19in /  1022.2hPa West 4.6mph /  7.4km/h 4.6mph /  7.4km/h 61% 0.00in /  0cm
12:01 61.3 °F /  16.3 °C 47.3 °F /  8.5 °C 30.19in /  1022.2hPa West 3.5mph /  5.6km/h 3.5mph /  5.6km/h 60% 0.00in /  0cm
12:06 61.7 °F /  16.5 °C 48.1 °F /  8.9 °C 30.19in /  1022.2hPa WNW 6.1mph /  9.8km/h 6.1mph /  9.8km/h 61% 0.00in /  0cm
12:11 62.6 °F /  17 °C 48.1 °F /  8.9 °C 30.19in /  1022.2hPa West 3.5mph /  5.6km/h 3.5mph /  5.6km/h 59% 0.00in /  0cm
12:16 62.6 °F /  17 °C 49.0 °F /  9.4 °C 30.19in /  1022.2hPa West 4.6mph /  7.4km/h 4.6mph /  7.4km/h 61% 0.00in /  0cm
12:21 62.2 °F /  16.8 °C 47.3 °F /  8.5 °C 30.19in /  1022.2hPa WNW 6.1mph /  9.8km/h 6.1mph /  9.8km/h 58% 0.00in /  0cm
12:26 62.8 °F /  17.1 °C 48.7 °F /  9.3 °C 30.18in /  1021.9hPa WNW 5.8mph /  9.3km/h 5.8mph /  9.3km/h 60% 0.00in /  0cm
12:31 62.4 °F /  16.9 °C 47.4 °F /  8.6 °C 30.18in /  1021.9hPa West 9.2mph /  14.8km/h 9.2mph /  14.8km/h 58% 0.00in /  0cm
Wether-Above
Compliments of Weather Underground
Welcome to Weather-Above
Cheddleton weather station supplies various organisations with data from our weather station one of them is the weather Underground this information displayed here is coming from the weather Underground server 

If any information is used please acknowledge the source to www weather-above.com or weather Underground